sensor_id;sensor_type;location;lat;lon;timestamp;P1;durP1;ratioP1;P2;durP2;ratioP2
76447;SDS011;65284;51.040;13.722;2023-08-30T00:00:48;5.13;;;2.45;;
76447;SDS011;65284;51.040;13.722;2023-08-30T00:03:15;2.90;;;1.90;;
76447;SDS011;65284;51.040;13.722;2023-08-30T00:05:41;4.22;;;1.90;;
76447;SDS011;65284;51.040;13.722;2023-08-30T00:08:08;5.13;;;2.05;;
76447;SDS011;65284;51.040;13.722;2023-08-30T00:10:35;3.50;;;2.10;;
76447;SDS011;65284;51.040;13.722;2023-08-30T00:13:04;3.72;;;2.22;;
76447;SDS011;65284;51.040;13.722;2023-08-30T00:15:30;3.53;;;1.98;;
76447;SDS011;65284;51.040;13.722;2023-08-30T00:17:57;2.85;;;2.00;;
76447;SDS011;65284;51.040;13.722;2023-08-30T00:20:23;4.10;;;1.92;;
76447;SDS011;65284;51.040;13.722;2023-08-30T00:22:50;3.60;;;2.15;;
76447;SDS011;65284;51.040;13.722;2023-08-30T00:25:17;3.45;;;2.00;;
76447;SDS011;65284;51.040;13.722;2023-08-30T00:27:43;4.45;;;1.90;;
76447;SDS011;65284;51.040;13.722;2023-08-30T00:30:10;3.22;;;2.03;;
76447;SDS011;65284;51.040;13.722;2023-08-30T00:32:37;3.45;;;2.00;;
76447;SDS011;65284;51.040;13.722;2023-08-30T00:35:03;3.47;;;1.90;;
76447;SDS011;65284;51.040;13.722;2023-08-30T00:37:30;4.10;;;2.08;;
76447;SDS011;65284;51.040;13.722;2023-08-30T00:39:57;4.82;;;2.13;;
76447;SDS011;65284;51.040;13.722;2023-08-30T00:42:25;3.55;;;2.30;;
76447;SDS011;65284;51.040;13.722;2023-08-30T00:44:53;3.20;;;2.20;;
76447;SDS011;65284;51.040;13.722;2023-08-30T00:47:20;4.35;;;2.15;;
76447;SDS011;65284;51.040;13.722;2023-08-30T00:49:47;5.47;;;2.55;;
76447;SDS011;65284;51.040;13.722;2023-08-30T00:52:14;3.88;;;2.28;;
76447;SDS011;65284;51.040;13.722;2023-08-30T00:54:41;3.70;;;2.50;;
76447;SDS011;65284;51.040;13.722;2023-08-30T00:57:08;3.80;;;2.15;;
76447;SDS011;65284;51.040;13.722;2023-08-30T00:59:35;5.05;;;2.15;;
76447;SDS011;65284;51.040;13.722;2023-08-30T01:02:03;3.97;;;2.60;;
76447;SDS011;65284;51.040;13.722;2023-08-30T01:04:30;4.53;;;2.38;;
76447;SDS011;65284;51.040;13.722;2023-08-30T01:06:56;4.05;;;2.40;;
76447;SDS011;65284;51.040;13.722;2023-08-30T01:09:24;5.40;;;2.33;;
76447;SDS011;65284;51.040;13.722;2023-08-30T01:14:48;6.38;;;2.70;;
76447;SDS011;65284;51.040;13.722;2023-08-30T01:17:19;5.63;;;2.97;;
76447;SDS011;65284;51.040;13.722;2023-08-30T01:19:49;4.43;;;2.70;;
76447;SDS011;65284;51.040;13.722;2023-08-30T01:22:38;6.55;;;3.22;;
76447;SDS011;65284;51.040;13.722;2023-08-30T01:27:40;4.88;;;2.60;;
76447;SDS011;65284;51.040;13.722;2023-08-30T01:30:10;10.18;;;3.28;;
76447;SDS011;65284;51.040;13.722;2023-08-30T01:32:37;5.00;;;3.20;;
76447;SDS011;65284;51.040;13.722;2023-08-30T01:35:05;6.72;;;3.50;;
76447;SDS011;65284;51.040;13.722;2023-08-30T01:37:32;5.53;;;3.15;;
76447;SDS011;65284;51.040;13.722;2023-08-30T01:39:59;7.07;;;3.63;;
76447;SDS011;65284;51.040;13.722;2023-08-30T01:42:30;5.82;;;3.83;;
76447;SDS011;65284;51.040;13.722;2023-08-30T01:44:57;5.93;;;4.00;;
76447;SDS011;65284;51.040;13.722;2023-08-30T01:47:27;6.97;;;3.90;;
76447;SDS011;65284;51.040;13.722;2023-08-30T01:49:55;6.85;;;4.30;;
76447;SDS011;65284;51.040;13.722;2023-08-30T01:52:23;7.78;;;3.80;;
76447;SDS011;65284;51.040;13.722;2023-08-30T01:54:53;5.30;;;3.65;;
76447;SDS011;65284;51.040;13.722;2023-08-30T01:57:20;5.53;;;3.55;;
76447;SDS011;65284;51.040;13.722;2023-08-30T01:59:46;6.00;;;3.63;;
76447;SDS011;65284;51.040;13.722;2023-08-30T02:02:13;5.55;;;3.42;;
76447;SDS011;65284;51.040;13.722;2023-08-30T02:04:39;6.05;;;3.70;;
76447;SDS011;65284;51.040;13.722;2023-08-30T02:07:12;6.35;;;3.33;;
76447;SDS011;65284;51.040;13.722;2023-08-30T02:09:43;5.18;;;3.13;;
76447;SDS011;65284;51.040;13.722;2023-08-30T02:12:20;5.20;;;3.28;;
76447;SDS011;65284;51.040;13.722;2023-08-30T02:14:51;6.25;;;3.30;;
76447;SDS011;65284;51.040;13.722;2023-08-30T02:17:19;4.93;;;3.15;;
76447;SDS011;65284;51.040;13.722;2023-08-30T02:19:46;4.95;;;2.95;;
76447;SDS011;65284;51.040;13.722;2023-08-30T02:22:13;4.80;;;3.10;;
76447;SDS011;65284;51.040;13.722;2023-08-30T02:24:40;4.95;;;3.25;;
76447;SDS011;65284;51.040;13.722;2023-08-30T02:27:06;4.97;;;3.20;;
76447;SDS011;65284;51.040;13.722;2023-08-30T02:29:32;4.95;;;3.28;;
76447;SDS011;65284;51.040;13.722;2023-08-30T02:31:59;7.13;;;3.20;;
76447;SDS011;65284;51.040;13.722;2023-08-30T02:34:25;5.13;;;3.20;;
76447;SDS011;65284;51.040;13.722;2023-08-30T02:36:52;6.00;;;3.15;;
76447;SDS011;65284;51.040;13.722;2023-08-30T02:39:18;5.68;;;3.17;;
76447;SDS011;65284;51.040;13.722;2023-08-30T02:41:45;5.63;;;3.47;;
76447;SDS011;65284;51.040;13.722;2023-08-30T02:44:12;4.47;;;3.05;;
76447;SDS011;65284;51.040;13.722;2023-08-30T02:46:38;5.53;;;3.28;;
76447;SDS011;65284;51.040;13.722;2023-08-30T02:49:05;5.10;;;3.20;;
76447;SDS011;65284;51.040;13.722;2023-08-30T02:51:31;5.22;;;3.50;;
76447;SDS011;65284;51.040;13.722;2023-08-30T02:53:58;5.07;;;3.42;;
76447;SDS011;65284;51.040;13.722;2023-08-30T02:56:24;5.63;;;3.10;;
76447;SDS011;65284;51.040;13.722;2023-08-30T02:58:51;6.75;;;2.92;;
76447;SDS011;65284;51.040;13.722;2023-08-30T03:01:18;5.18;;;3.15;;
76447;SDS011;65284;51.040;13.722;2023-08-30T03:03:47;5.80;;;3.22;;
76447;SDS011;65284;51.040;13.722;2023-08-30T03:06:14;5.43;;;3.40;;
76447;SDS011;65284;51.040;13.722;2023-08-30T03:08:40;5.40;;;3.28;;
76447;SDS011;65284;51.040;13.722;2023-08-30T03:11:10;5.57;;;3.05;;
76447;SDS011;65284;51.040;13.722;2023-08-30T03:13:38;4.90;;;3.22;;
76447;SDS011;65284;51.040;13.722;2023-08-30T03:16:14;5.82;;;3.60;;
76447;SDS011;65284;51.040;13.722;2023-08-30T03:18:42;6.00;;;3.80;;
76447;SDS011;65284;51.040;13.722;2023-08-30T03:21:10;5.95;;;3.90;;
76447;SDS011;65284;51.040;13.722;2023-08-30T03:23:37;5.70;;;4.20;;
76447;SDS011;65284;51.040;13.722;2023-08-30T03:26:14;5.82;;;3.50;;
76447;SDS011;65284;51.040;13.722;2023-08-30T03:28:42;7.88;;;3.85;;
76447;SDS011;65284;51.040;13.722;2023-08-30T03:31:16;6.43;;;3.70;;
76447;SDS011;65284;51.040;13.722;2023-08-30T03:33:44;7.00;;;3.45;;
76447;SDS011;65284;51.040;13.722;2023-08-30T03:36:12;6.60;;;3.72;;
76447;SDS011;65284;51.040;13.722;2023-08-30T03:38:40;7.05;;;3.72;;
76447;SDS011;65284;51.040;13.722;2023-08-30T03:41:06;6.28;;;3.63;;
76447;SDS011;65284;51.040;13.722;2023-08-30T03:43:33;5.80;;;3.42;;
76447;SDS011;65284;51.040;13.722;2023-08-30T03:46:00;6.55;;;3.53;;
76447;SDS011;65284;51.040;13.722;2023-08-30T03:48:27;5.75;;;3.53;;
76447;SDS011;65284;51.040;13.722;2023-08-30T03:50:54;5.70;;;3.30;;
76447;SDS011;65284;51.040;13.722;2023-08-30T03:53:21;9.88;;;3.38;;
76447;SDS011;65284;51.040;13.722;2023-08-30T03:55:48;4.75;;;3.00;;
76447;SDS011;65284;51.040;13.722;2023-08-30T03:58:15;6.68;;;3.17;;
76447;SDS011;65284;51.040;13.722;2023-08-30T04:00:42;5.30;;;3.45;;
76447;SDS011;65284;51.040;13.722;2023-08-30T04:03:09;5.75;;;3.10;;
76447;SDS011;65284;51.040;13.722;2023-08-30T04:05:36;5.30;;;3.00;;
76447;SDS011;65284;51.040;13.722;2023-08-30T04:08:04;6.65;;;3.45;;
76447;SDS011;65284;51.040;13.722;2023-08-30T04:10:36;6.05;;;3.03;;
76447;SDS011;65284;51.040;13.722;2023-08-30T04:13:07;5.25;;;3.30;;
76447;SDS011;65284;51.040;13.722;2023-08-30T04:15:38;7.15;;;3.28;;
76447;SDS011;65284;51.040;13.722;2023-08-30T04:18:05;6.35;;;3.45;;
76447;SDS011;65284;51.040;13.722;2023-08-30T04:20:34;6.32;;;3.20;;
76447;SDS011;65284;51.040;13.722;2023-08-30T04:23:01;7.70;;;3.47;;
76447;SDS011;65284;51.040;13.722;2023-08-30T04:25:28;5.15;;;3.00;;
76447;SDS011;65284;51.040;13.722;2023-08-30T04:27:55;4.93;;;2.80;;
76447;SDS011;65284;51.040;13.722;2023-08-30T04:30:22;7.40;;;3.03;;
76447;SDS011;65284;51.040;13.722;2023-08-30T04:32:49;5.38;;;3.35;;
76447;SDS011;65284;51.040;13.722;2023-08-30T04:35:16;6.45;;;3.47;;
76447;SDS011;65284;51.040;13.722;2023-08-30T04:37:42;6.65;;;3.28;;
76447;SDS011;65284;51.040;13.722;2023-08-30T04:40:09;5.82;;;3.10;;
76447;SDS011;65284;51.040;13.722;2023-08-30T04:42:36;7.00;;;3.60;;
76447;SDS011;65284;51.040;13.722;2023-08-30T04:45:04;7.32;;;3.25;;
76447;SDS011;65284;51.040;13.722;2023-08-30T04:47:31;6.18;;;3.15;;
76447;SDS011;65284;51.040;13.722;2023-08-30T04:49:58;5.40;;;3.17;;
76447;SDS011;65284;51.040;13.722;2023-08-30T04:52:25;7.85;;;3.95;;
76447;SDS011;65284;51.040;13.722;2023-08-30T04:54:52;5.00;;;3.40;;
76447;SDS011;65284;51.040;13.722;2023-08-30T04:57:18;5.85;;;3.20;;
76447;SDS011;65284;51.040;13.722;2023-08-30T04:59:45;6.28;;;3.60;;
76447;SDS011;65284;51.040;13.722;2023-08-30T05:02:12;7.18;;;3.40;;
76447;SDS011;65284;51.040;13.722;2023-08-30T05:04:38;7.25;;;3.30;;
76447;SDS011;65284;51.040;13.722;2023-08-30T05:07:05;6.60;;;3.40;;
76447;SDS011;65284;51.040;13.722;2023-08-30T05:09:31;6.07;;;3.42;;
76447;SDS011;65284;51.040;13.722;2023-08-30T05:11:58;5.30;;;3.15;;
76447;SDS011;65284;51.040;13.722;2023-08-30T05:14:25;6.13;;;3.47;;
76447;SDS011;65284;51.040;13.722;2023-08-30T05:16:51;7.40;;;3.65;;
76447;SDS011;65284;51.040;13.722;2023-08-30T05:19:18;8.82;;;3.53;;
76447;SDS011;65284;51.040;13.722;2023-08-30T05:21:45;7.88;;;3.35;;
76447;SDS011;65284;51.040;13.722;2023-08-30T05:24:11;6.47;;;3.70;;
76447;SDS011;65284;51.040;13.722;2023-08-30T05:26:38;5.95;;;3.55;;
76447;SDS011;65284;51.040;13.722;2023-08-30T05:29:04;6.20;;;3.60;;
76447;SDS011;65284;51.040;13.722;2023-08-30T05:31:30;5.68;;;3.22;;
76447;SDS011;65284;51.040;13.722;2023-08-30T05:33:57;5.15;;;3.30;;
76447;SDS011;65284;51.040;13.722;2023-08-30T05:36:23;8.02;;;3.50;;
76447;SDS011;65284;51.040;13.722;2023-08-30T05:38:50;6.18;;;3.85;;
76447;SDS011;65284;51.040;13.722;2023-08-30T05:41:16;6.75;;;3.80;;
76447;SDS011;65284;51.040;13.722;2023-08-30T05:43:43;6.47;;;3.70;;
76447;SDS011;65284;51.040;13.722;2023-08-30T05:46:09;6.05;;;3.72;;
76447;SDS011;65284;51.040;13.722;2023-08-30T05:48:41;6.88;;;3.60;;
76447;SDS011;65284;51.040;13.722;2023-08-30T05:51:07;5.97;;;3.70;;
76447;SDS011;65284;51.040;13.722;2023-08-30T05:53:34;6.30;;;3.72;;
76447;SDS011;65284;51.040;13.722;2023-08-30T05:56:00;5.85;;;3.55;;
76447;SDS011;65284;51.040;13.722;2023-08-30T05:58:27;6.22;;;3.40;;
76447;SDS011;65284;51.040;13.722;2023-08-30T06:00:54;9.00;;;3.80;;
76447;SDS011;65284;51.040;13.722;2023-08-30T06:03:20;6.70;;;3.25;;
76447;SDS011;65284;51.040;13.722;2023-08-30T06:05:47;7.03;;;3.75;;
76447;SDS011;65284;51.040;13.722;2023-08-30T06:08:15;5.10;;;3.00;;
76447;SDS011;65284;51.040;13.722;2023-08-30T06:10:41;5.72;;;3.15;;
76447;SDS011;65284;51.040;13.722;2023-08-30T06:13:08;7.30;;;3.28;;
76447;SDS011;65284;51.040;13.722;2023-08-30T06:15:35;5.70;;;3.50;;
76447;SDS011;65284;51.040;13.722;2023-08-30T06:18:01;5.30;;;3.13;;
76447;SDS011;65284;51.040;13.722;2023-08-30T06:20:29;5.57;;;3.38;;
76447;SDS011;65284;51.040;13.722;2023-08-30T06:22:57;6.43;;;3.40;;
76447;SDS011;65284;51.040;13.722;2023-08-30T06:25:25;6.07;;;3.60;;
76447;SDS011;65284;51.040;13.722;2023-08-30T06:27:55;6.82;;;3.78;;
76447;SDS011;65284;51.040;13.722;2023-08-30T06:30:23;8.65;;;4.28;;
76447;SDS011;65284;51.040;13.722;2023-08-30T06:32:49;7.40;;;3.67;;
76447;SDS011;65284;51.040;13.722;2023-08-30T06:35:16;7.25;;;4.75;;
76447;SDS011;65284;51.040;13.722;2023-08-30T06:37:42;7.88;;;4.88;;
76447;SDS011;65284;51.040;13.722;2023-08-30T06:40:09;10.68;;;5.15;;
76447;SDS011;65284;51.040;13.722;2023-08-30T06:42:36;8.05;;;5.18;;
76447;SDS011;65284;51.040;13.722;2023-08-30T06:45:03;9.18;;;5.35;;
76447;SDS011;65284;51.040;13.722;2023-08-30T06:47:30;10.20;;;5.97;;
76447;SDS011;65284;51.040;13.722;2023-08-30T06:49:57;9.60;;;5.78;;
76447;SDS011;65284;51.040;13.722;2023-08-30T06:52:23;9.25;;;5.72;;
76447;SDS011;65284;51.040;13.722;2023-08-30T06:54:50;11.63;;;6.38;;
76447;SDS011;65284;51.040;13.722;2023-08-30T06:57:16;10.57;;;6.50;;
76447;SDS011;65284;51.040;13.722;2023-08-30T06:59:43;11.93;;;6.88;;
76447;SDS011;65284;51.040;13.722;2023-08-30T07:02:09;11.27;;;6.90;;
76447;SDS011;65284;51.040;13.722;2023-08-30T07:04:36;11.48;;;7.38;;
76447;SDS011;65284;51.040;13.722;2023-08-30T07:07:02;13.20;;;7.53;;
76447;SDS011;65284;51.040;13.722;2023-08-30T07:09:34;10.65;;;6.90;;
76447;SDS011;65284;51.040;13.722;2023-08-30T07:12:01;11.10;;;7.28;;
76447;SDS011;65284;51.040;13.722;2023-08-30T07:14:27;10.88;;;6.68;;
76447;SDS011;65284;51.040;13.722;2023-08-30T07:16:54;10.82;;;7.30;;
76447;SDS011;65284;51.040;13.722;2023-08-30T07:19:20;9.48;;;6.20;;
76447;SDS011;65284;51.040;13.722;2023-08-30T07:21:47;11.20;;;5.97;;
76447;SDS011;65284;51.040;13.722;2023-08-30T07:24:14;9.70;;;6.30;;
76447;SDS011;65284;51.040;13.722;2023-08-30T07:26:40;9.90;;;5.97;;
76447;SDS011;65284;51.040;13.722;2023-08-30T07:29:08;9.07;;;5.72;;
76447;SDS011;65284;51.040;13.722;2023-08-30T07:31:35;8.00;;;4.97;;
76447;SDS011;65284;51.040;13.722;2023-08-30T07:34:01;9.32;;;5.20;;
76447;SDS011;65284;51.040;13.722;2023-08-30T07:36:29;10.15;;;5.20;;
76447;SDS011;65284;51.040;13.722;2023-08-30T07:39:12;6.95;;;4.45;;
76447;SDS011;65284;51.040;13.722;2023-08-30T07:41:39;8.25;;;4.25;;
76447;SDS011;65284;51.040;13.722;2023-08-30T07:44:05;6.72;;;4.18;;
76447;SDS011;65284;51.040;13.722;2023-08-30T07:46:32;7.22;;;4.57;;
76447;SDS011;65284;51.040;13.722;2023-08-30T07:48:58;6.88;;;3.67;;
76447;SDS011;65284;51.040;13.722;2023-08-30T07:51:25;6.20;;;3.00;;
76447;SDS011;65284;51.040;13.722;2023-08-30T07:53:51;5.60;;;2.80;;
76447;SDS011;65284;51.040;13.722;2023-08-30T07:56:17;6.10;;;3.53;;
76447;SDS011;65284;51.040;13.722;2023-08-30T07:58:44;6.22;;;3.53;;
76447;SDS011;65284;51.040;13.722;2023-08-30T08:01:10;7.35;;;3.42;;
76447;SDS011;65284;51.040;13.722;2023-08-30T08:03:37;4.32;;;2.83;;
76447;SDS011;65284;51.040;13.722;2023-08-30T08:06:14;4.90;;;3.03;;
76447;SDS011;65284;51.040;13.722;2023-08-30T08:08:44;4.95;;;2.63;;
76447;SDS011;65284;51.040;13.722;2023-08-30T08:11:10;6.72;;;2.83;;
76447;SDS011;65284;51.040;13.722;2023-08-30T08:13:37;4.72;;;3.00;;
76447;SDS011;65284;51.040;13.722;2023-08-30T08:16:04;4.50;;;2.85;;
76447;SDS011;65284;51.040;13.722;2023-08-30T08:18:30;5.65;;;3.00;;
76447;SDS011;65284;51.040;13.722;2023-08-30T08:20:57;7.03;;;3.10;;
76447;SDS011;65284;51.040;13.722;2023-08-30T08:23:23;6.25;;;3.30;;
76447;SDS011;65284;51.040;13.722;2023-08-30T08:25:56;4.80;;;2.80;;
76447;SDS011;65284;51.040;13.722;2023-08-30T08:28:24;5.90;;;2.70;;
76447;SDS011;65284;51.040;13.722;2023-08-30T08:30:50;6.80;;;3.17;;
76447;SDS011;65284;51.040;13.722;2023-08-30T08:33:17;5.18;;;3.10;;
76447;SDS011;65284;51.040;13.722;2023-08-30T08:35:44;5.50;;;3.25;;
76447;SDS011;65284;51.040;13.722;2023-08-30T08:38:10;5.35;;;3.05;;
76447;SDS011;65284;51.040;13.722;2023-08-30T08:40:37;5.40;;;3.00;;
76447;SDS011;65284;51.040;13.722;2023-08-30T08:43:12;6.57;;;2.92;;
76447;SDS011;65284;51.040;13.722;2023-08-30T08:45:38;6.75;;;3.00;;
76447;SDS011;65284;51.040;13.722;2023-08-30T08:48:05;5.20;;;2.67;;
76447;SDS011;65284;51.040;13.722;2023-08-30T08:50:34;4.82;;;2.50;;
76447;SDS011;65284;51.040;13.722;2023-08-30T08:53:01;6.18;;;2.65;;
76447;SDS011;65284;51.040;13.722;2023-08-30T08:55:29;4.72;;;2.70;;
76447;SDS011;65284;51.040;13.722;2023-08-30T08:57:57;6.60;;;2.80;;
76447;SDS011;65284;51.040;13.722;2023-08-30T09:00:25;4.72;;;2.60;;
76447;SDS011;65284;51.040;13.722;2023-08-30T09:02:53;5.95;;;2.90;;
76447;SDS011;65284;51.040;13.722;2023-08-30T09:05:20;4.88;;;2.72;;
76447;SDS011;65284;51.040;13.722;2023-08-30T09:07:47;6.65;;;2.80;;
76447;SDS011;65284;51.040;13.722;2023-08-30T09:10:15;4.55;;;3.00;;
76447;SDS011;65284;51.040;13.722;2023-08-30T09:12:41;4.68;;;2.40;;
76447;SDS011;65284;51.040;13.722;2023-08-30T09:15:08;4.68;;;2.63;;
76447;SDS011;65284;51.040;13.722;2023-08-30T09:17:35;4.40;;;2.70;;
76447;SDS011;65284;51.040;13.722;2023-08-30T09:20:06;4.10;;;2.65;;
76447;SDS011;65284;51.040;13.722;2023-08-30T09:22:37;5.75;;;2.58;;
76447;SDS011;65284;51.040;13.722;2023-08-30T09:25:08;5.15;;;2.67;;
76447;SDS011;65284;51.040;13.722;2023-08-30T09:27:38;5.10;;;2.45;;
76447;SDS011;65284;51.040;13.722;2023-08-30T09:30:07;6.68;;;3.10;;
76447;SDS011;65284;51.040;13.722;2023-08-30T09:32:40;3.97;;;2.45;;
76447;SDS011;65284;51.040;13.722;2023-08-30T09:35:08;5.00;;;2.47;;
76447;SDS011;65284;51.040;13.722;2023-08-30T09:37:35;4.05;;;2.53;;
76447;SDS011;65284;51.040;13.722;2023-08-30T09:40:02;5.05;;;2.47;;
76447;SDS011;65284;51.040;13.722;2023-08-30T09:42:28;4.20;;;2.38;;
76447;SDS011;65284;51.040;13.722;2023-08-30T09:44:56;5.35;;;2.50;;
76447;SDS011;65284;51.040;13.722;2023-08-30T09:47:25;4.95;;;2.65;;
76447;SDS011;65284;51.040;13.722;2023-08-30T09:49:56;5.10;;;2.50;;
76447;SDS011;65284;51.040;13.722;2023-08-30T09:52:24;4.53;;;2.60;;
76447;SDS011;65284;51.040;13.722;2023-08-30T09:54:52;4.45;;;2.35;;
76447;SDS011;65284;51.040;13.722;2023-08-30T09:57:19;5.32;;;2.40;;
76447;SDS011;65284;51.040;13.722;2023-08-30T09:59:56;4.88;;;2.33;;
76447;SDS011;65284;51.040;13.722;2023-08-30T10:02:23;5.38;;;2.70;;
76447;SDS011;65284;51.040;13.722;2023-08-30T10:04:50;4.43;;;2.40;;
76447;SDS011;65284;51.040;13.722;2023-08-30T10:07:18;5.22;;;2.80;;
76447;SDS011;65284;51.040;13.722;2023-08-30T10:09:45;3.95;;;2.78;;
76447;SDS011;65284;51.040;13.722;2023-08-30T10:12:31;4.03;;;2.45;;
76447;SDS011;65284;51.040;13.722;2023-08-30T10:14:59;7.00;;;2.70;;
76447;SDS011;65284;51.040;13.722;2023-08-30T10:17:27;6.45;;;3.25;;
76447;SDS011;65284;51.040;13.722;2023-08-30T10:19:55;4.57;;;2.20;;
76447;SDS011;65284;51.040;13.722;2023-08-30T10:22:22;4.15;;;2.75;;
76447;SDS011;65284;51.040;13.722;2023-08-30T10:24:57;4.30;;;2.60;;
76447;SDS011;65284;51.040;13.722;2023-08-30T10:27:52;4.75;;;2.15;;
76447;SDS011;65284;51.040;13.722;2023-08-30T10:30:20;4.32;;;2.03;;
76447;SDS011;65284;51.040;13.722;2023-08-30T10:32:48;3.80;;;2.50;;
76447;SDS011;65284;51.040;13.722;2023-08-30T10:35:15;3.97;;;2.00;;
76447;SDS011;65284;51.040;13.722;2023-08-30T10:37:53;5.80;;;2.50;;
76447;SDS011;65284;51.040;13.722;2023-08-30T10:40:22;4.60;;;2.30;;
76447;SDS011;65284;51.040;13.722;2023-08-30T10:43:04;6.55;;;2.40;;
76447;SDS011;65284;51.040;13.722;2023-08-30T10:45:30;4.68;;;2.45;;
76447;SDS011;65284;51.040;13.722;2023-08-30T10:47:58;5.05;;;2.30;;
76447;SDS011;65284;51.040;13.722;2023-08-30T10:50:32;5.47;;;2.20;;
76447;SDS011;65284;51.040;13.722;2023-08-30T10:53:00;4.55;;;2.05;;
76447;SDS011;65284;51.040;13.722;2023-08-30T10:55:27;4.03;;;2.30;;
76447;SDS011;65284;51.040;13.722;2023-08-30T10:58:03;4.85;;;2.42;;
76447;SDS011;65284;51.040;13.722;2023-08-30T11:00:31;11.68;;;7.35;;
76447;SDS011;65284;51.040;13.722;2023-08-30T11:02:58;4.97;;;2.50;;
76447;SDS011;65284;51.040;13.722;2023-08-30T11:05:25;6.47;;;2.17;;
76447;SDS011;65284;51.040;13.722;2023-08-30T11:07:52;5.20;;;2.20;;
76447;SDS011;65284;51.040;13.722;2023-08-30T11:10:20;6.10;;;2.22;;
76447;SDS011;65284;51.040;13.722;2023-08-30T11:12:48;7.22;;;2.13;;
76447;SDS011;65284;51.040;13.722;2023-08-30T11:15:16;3.33;;;2.10;;
76447;SDS011;65284;51.040;13.722;2023-08-30T11:17:43;5.57;;;2.20;;
76447;SDS011;65284;51.040;13.722;2023-08-30T11:20:10;8.27;;;1.88;;
76447;SDS011;65284;51.040;13.722;2023-08-30T11:22:54;4.53;;;2.20;;
76447;SDS011;65284;51.040;13.722;2023-08-30T11:25:21;7.75;;;2.50;;
76447;SDS011;65284;51.040;13.722;2023-08-30T11:27:48;10.98;;;7.20;;
76447;SDS011;65284;51.040;13.722;2023-08-30T11:30:14;5.82;;;2.95;;
76447;SDS011;65284;51.040;13.722;2023-08-30T11:32:41;9.68;;;3.78;;
76447;SDS011;65284;51.040;13.722;2023-08-30T11:35:09;9.93;;;5.55;;
76447;SDS011;65284;51.040;13.722;2023-08-30T11:37:36;5.20;;;2.45;;
76447;SDS011;65284;51.040;13.722;2023-08-30T11:40:03;4.43;;;2.35;;
76447;SDS011;65284;51.040;13.722;2023-08-30T11:44:58;4.07;;;1.60;;
76447;SDS011;65284;51.040;13.722;2023-08-30T11:47:26;3.42;;;1.60;;
76447;SDS011;65284;51.040;13.722;2023-08-30T11:49:54;3.40;;;2.00;;
76447;SDS011;65284;51.040;13.722;2023-08-30T11:52:22;4.20;;;2.13;;
76447;SDS011;65284;51.040;13.722;2023-08-30T11:54:50;3.42;;;1.70;;
76447;SDS011;65284;51.040;13.722;2023-08-30T11:57:17;2.88;;;1.70;;
76447;SDS011;65284;51.040;13.722;2023-08-30T11:59:44;3.03;;;1.70;;
76447;SDS011;65284;51.040;13.722;2023-08-30T12:02:11;4.05;;;2.17;;
76447;SDS011;65284;51.040;13.722;2023-08-30T12:04:40;3.83;;;1.60;;
76447;SDS011;65284;51.040;13.722;2023-08-30T12:07:08;3.33;;;1.60;;
76447;SDS011;65284;51.040;13.722;2023-08-30T12:09:35;3.70;;;1.45;;
76447;SDS011;65284;51.040;13.722;2023-08-30T12:12:05;3.20;;;1.30;;
76447;SDS011;65284;51.040;13.722;2023-08-30T12:14:41;3.30;;;1.40;;
76447;SDS011;65284;51.040;13.722;2023-08-30T12:17:08;3.45;;;1.40;;
76447;SDS011;65284;51.040;13.722;2023-08-30T12:19:34;6.28;;;1.63;;
76447;SDS011;65284;51.040;13.722;2023-08-30T12:22:04;2.75;;;1.30;;
76447;SDS011;65284;51.040;13.722;2023-08-30T12:24:43;3.47;;;1.50;;
76447;SDS011;65284;51.040;13.722;2023-08-30T12:27:11;3.00;;;1.42;;
76447;SDS011;65284;51.040;13.722;2023-08-30T12:29:37;2.78;;;1.38;;
76447;SDS011;65284;51.040;13.722;2023-08-30T12:32:04;3.30;;;1.58;;
76447;SDS011;65284;51.040;13.722;2023-08-30T12:34:31;4.05;;;1.40;;
76447;SDS011;65284;51.040;13.722;2023-08-30T12:36:57;3.45;;;1.40;;
76447;SDS011;65284;51.040;13.722;2023-08-30T12:39:27;3.03;;;1.50;;
76447;SDS011;65284;51.040;13.722;2023-08-30T12:41:54;3.85;;;1.55;;
76447;SDS011;65284;51.040;13.722;2023-08-30T12:44:21;2.83;;;1.50;;
76447;SDS011;65284;51.040;13.722;2023-08-30T12:46:48;3.88;;;1.30;;
76447;SDS011;65284;51.040;13.722;2023-08-30T12:49:14;3.83;;;1.60;;
76447;SDS011;65284;51.040;13.722;2023-08-30T12:51:41;3.13;;;1.50;;
76447;SDS011;65284;51.040;13.722;2023-08-30T12:54:07;3.50;;;1.40;;
76447;SDS011;65284;51.040;13.722;2023-08-30T12:56:34;3.05;;;1.70;;
76447;SDS011;65284;51.040;13.722;2023-08-30T12:59:00;3.13;;;1.80;;
76447;SDS011;65284;51.040;13.722;2023-08-30T13:01:27;3.83;;;1.50;;
76447;SDS011;65284;51.040;13.722;2023-08-30T13:03:53;3.15;;;1.80;;
76447;SDS011;65284;51.040;13.722;2023-08-30T13:06:20;4.53;;;1.55;;
76447;SDS011;65284;51.040;13.722;2023-08-30T13:08:46;2.80;;;1.50;;
76447;SDS011;65284;51.040;13.722;2023-08-30T13:11:13;3.28;;;1.60;;
76447;SDS011;65284;51.040;13.722;2023-08-30T13:13:39;3.17;;;1.70;;
76447;SDS011;65284;51.040;13.722;2023-08-30T13:16:06;2.90;;;1.50;;
76447;SDS011;65284;51.040;13.722;2023-08-30T13:18:32;5.05;;;1.85;;
76447;SDS011;65284;51.040;13.722;2023-08-30T13:20:59;3.08;;;1.73;;
76447;SDS011;65284;51.040;13.722;2023-08-30T13:23:25;5.13;;;1.83;;
76447;SDS011;65284;51.040;13.722;2023-08-30T13:25:52;5.07;;;1.90;;
76447;SDS011;65284;51.040;13.722;2023-08-30T13:28:19;2.60;;;1.70;;
76447;SDS011;65284;51.040;13.722;2023-08-30T13:30:46;3.00;;;1.33;;
76447;SDS011;65284;51.040;13.722;2023-08-30T13:33:12;3.15;;;1.40;;
76447;SDS011;65284;51.040;13.722;2023-08-30T13:35:39;3.25;;;1.45;;
76447;SDS011;65284;51.040;13.722;2023-08-30T13:38:06;4.32;;;1.50;;
76447;SDS011;65284;51.040;13.722;2023-08-30T13:40:33;2.35;;;1.40;;
76447;SDS011;65284;51.040;13.722;2023-08-30T13:42:59;2.88;;;1.55;;
76447;SDS011;65284;51.040;13.722;2023-08-30T13:45:25;3.03;;;1.52;;
76447;SDS011;65284;51.040;13.722;2023-08-30T13:47:52;2.20;;;1.20;;
76447;SDS011;65284;51.040;13.722;2023-08-30T13:50:21;2.22;;;1.40;;
76447;SDS011;65284;51.040;13.722;2023-08-30T13:52:47;3.60;;;1.50;;
76447;SDS011;65284;51.040;13.722;2023-08-30T13:55:14;3.28;;;1.75;;
76447;SDS011;65284;51.040;13.722;2023-08-30T13:57:40;2.45;;;1.50;;
76447;SDS011;65284;51.040;13.722;2023-08-30T14:00:07;4.35;;;1.63;;
76447;SDS011;65284;51.040;13.722;2023-08-30T14:02:36;4.15;;;1.70;;
76447;SDS011;65284;51.040;13.722;2023-08-30T14:05:02;2.72;;;1.50;;
76447;SDS011;65284;51.040;13.722;2023-08-30T14:07:29;3.58;;;1.50;;
76447;SDS011;65284;51.040;13.722;2023-08-30T14:09:56;3.45;;;1.58;;
76447;SDS011;65284;51.040;13.722;2023-08-30T14:12:22;2.58;;;1.45;;
76447;SDS011;65284;51.040;13.722;2023-08-30T14:14:49;5.43;;;1.48;;
76447;SDS011;65284;51.040;13.722;2023-08-30T14:17:15;4.28;;;2.63;;
76447;SDS011;65284;51.040;13.722;2023-08-30T14:19:42;5.38;;;1.75;;
76447;SDS011;65284;51.040;13.722;2023-08-30T14:22:08;5.47;;;3.20;;
76447;SDS011;65284;51.040;13.722;2023-08-30T14:24:35;4.22;;;1.60;;
76447;SDS011;65284;51.040;13.722;2023-08-30T14:27:17;2.30;;;1.48;;
76447;SDS011;65284;51.040;13.722;2023-08-30T14:29:43;2.67;;;1.45;;
76447;SDS011;65284;51.040;13.722;2023-08-30T14:32:10;3.95;;;1.60;;
76447;SDS011;65284;51.040;13.722;2023-08-30T14:34:37;3.95;;;1.60;;
76447;SDS011;65284;51.040;13.722;2023-08-30T14:37:03;4.28;;;2.30;;
76447;SDS011;65284;51.040;13.722;2023-08-30T14:39:29;2.63;;;1.40;;
76447;SDS011;65284;51.040;13.722;2023-08-30T14:41:56;3.78;;;1.30;;
76447;SDS011;65284;51.040;13.722;2023-08-30T14:44:22;2.00;;;1.23;;